sensor_id;sensor_type;location;lat;lon;timestamp;pressure;altitude;pressure_sealevel;temperature;humidity
11985;BME280;6052;53.246;10.368;2023-05-17T00:01:50;101436.16;;;13.63;78.46
11985;BME280;6052;53.246;10.368;2023-05-17T00:04:21;101440.81;;;13.79;77.95
11985;BME280;6052;53.246;10.368;2023-05-17T00:06:51;101443.03;;;13.82;77.44
11985;BME280;6052;53.246;10.368;2023-05-17T00:09:20;101444.75;;;13.60;79.33
11985;BME280;6052;53.246;10.368;2023-05-17T00:11:52;101446.72;;;13.53;79.49
11985;BME280;6052;53.246;10.368;2023-05-17T00:14:22;101444.44;;;13.45;79.81
11985;BME280;6052;53.246;10.368;2023-05-17T00:16:51;101457.63;;;13.58;78.39
11985;BME280;6052;53.246;10.368;2023-05-17T00:19:21;101450.00;;;13.66;78.28
11985;BME280;6052;53.246;10.368;2023-05-17T00:21:50;101450.47;;;13.63;77.66
11985;BME280;6052;53.246;10.368;2023-05-17T00:24:20;101447.00;;;13.40;79.05
11985;BME280;6052;53.246;10.368;2023-05-17T00:26:52;101458.69;;;13.57;78.35
11985;BME280;6052;53.246;10.368;2023-05-17T00:29:21;101449.53;;;13.58;78.74
11985;BME280;6052;53.246;10.368;2023-05-17T00:31:51;101451.16;;;13.70;77.73
11985;BME280;6052;53.246;10.368;2023-05-17T00:34:21;101460.38;;;13.46;78.72
11985;BME280;6052;53.246;10.368;2023-05-17T00:36:50;101461.88;;;13.54;78.62
11985;BME280;6052;53.246;10.368;2023-05-17T00:39:19;101454.63;;;13.43;78.07
11985;BME280;6052;53.246;10.368;2023-05-17T00:41:52;101456.00;;;13.57;77.74
11985;BME280;6052;53.246;10.368;2023-05-17T00:44:21;101456.13;;;13.50;77.77
11985;BME280;6052;53.246;10.368;2023-05-17T00:46:54;101463.41;;;13.61;76.91
11985;BME280;6052;53.246;10.368;2023-05-17T00:49:25;101467.63;;;13.57;77.93
11985;BME280;6052;53.246;10.368;2023-05-17T00:51:55;101464.59;;;13.42;78.07
11985;BME280;6052;53.246;10.368;2023-05-17T00:54:24;101460.00;;;13.54;77.38
11985;BME280;6052;53.246;10.368;2023-05-17T00:56:56;101457.28;;;13.66;75.64
11985;BME280;6052;53.246;10.368;2023-05-17T00:59:28;101449.34;;;13.36;77.34
11985;BME280;6052;53.246;10.368;2023-05-17T01:01:58;101453.91;;;13.59;76.63
11985;BME280;6052;53.246;10.368;2023-05-17T01:04:29;101453.94;;;13.36;77.78
11985;BME280;6052;53.246;10.368;2023-05-17T01:06:59;101458.16;;;13.32;77.34
11985;BME280;6052;53.246;10.368;2023-05-17T01:09:29;101458.38;;;13.42;77.26
11985;BME280;6052;53.246;10.368;2023-05-17T01:12:08;101457.31;;;13.43;76.21
11985;BME280;6052;53.246;10.368;2023-05-17T01:14:46;101463.53;;;13.55;76.28
11985;BME280;6052;53.246;10.368;2023-05-17T01:17:23;101460.00;;;13.43;76.92
11985;BME280;6052;53.246;10.368;2023-05-17T01:19:58;101465.38;;;13.54;75.87
11985;BME280;6052;53.246;10.368;2023-05-17T01:22:39;101451.31;;;13.64;74.88
11985;BME280;6052;53.246;10.368;2023-05-17T01:25:25;101465.91;;;13.28;75.56
11985;BME280;6052;53.246;10.368;2023-05-17T01:27:59;101459.78;;;13.21;77.03
11985;BME280;6052;53.246;10.368;2023-05-17T01:30:31;101459.09;;;13.49;75.36
11985;BME280;6052;53.246;10.368;2023-05-17T01:33:03;101454.72;;;13.48;75.52
11985;BME280;6052;53.246;10.368;2023-05-17T01:35:33;101460.31;;;13.58;74.83
11985;BME280;6052;53.246;10.368;2023-05-17T01:38:02;101465.63;;;13.53;74.50
11985;BME280;6052;53.246;10.368;2023-05-17T01:40:34;101466.69;;;13.40;74.92
11985;BME280;6052;53.246;10.368;2023-05-17T01:43:13;101465.06;;;13.39;74.24
11985;BME280;6052;53.246;10.368;2023-05-17T01:45:51;101471.06;;;13.41;74.55
11985;BME280;6052;53.246;10.368;2023-05-17T01:48:29;101468.09;;;13.43;74.26
11985;BME280;6052;53.246;10.368;2023-05-17T01:50:59;101463.53;;;13.32;75.07
11985;BME280;6052;53.246;10.368;2023-05-17T01:53:35;101465.41;;;13.31;74.50
11985;BME280;6052;53.246;10.368;2023-05-17T01:56:09;101470.81;;;13.31;74.47
11985;BME280;6052;53.246;10.368;2023-05-17T01:58:46;101475.16;;;13.21;75.22
11985;BME280;6052;53.246;10.368;2023-05-17T02:01:17;101484.41;;;13.36;73.87
11985;BME280;6052;53.246;10.368;2023-05-17T02:03:47;101478.88;;;13.31;74.72
11985;BME280;6052;53.246;10.368;2023-05-17T02:06:17;101474.44;;;13.25;74.35
11985;BME280;6052;53.246;10.368;2023-05-17T02:08:47;101487.91;;;13.14;74.44
11985;BME280;6052;53.246;10.368;2023-05-17T02:11:16;101478.31;;;13.18;74.24
11985;BME280;6052;53.246;10.368;2023-05-17T02:13:48;101497.53;;;13.21;74.19
11985;BME280;6052;53.246;10.368;2023-05-17T02:16:18;101497.28;;;13.11;74.47
11985;BME280;6052;53.246;10.368;2023-05-17T02:18:47;101498.69;;;13.14;74.30
11985;BME280;6052;53.246;10.368;2023-05-17T02:21:17;101499.44;;;12.68;75.32
11985;BME280;6052;53.246;10.368;2023-05-17T02:23:46;101496.09;;;12.96;74.88
11985;BME280;6052;53.246;10.368;2023-05-17T02:26:16;101498.94;;;12.60;75.83
11985;BME280;6052;53.246;10.368;2023-05-17T02:28:48;101503.81;;;12.92;74.49
11985;BME280;6052;53.246;10.368;2023-05-17T02:31:18;101502.41;;;12.90;74.49
11985;BME280;6052;53.246;10.368;2023-05-17T02:33:47;101500.75;;;12.66;75.39
11985;BME280;6052;53.246;10.368;2023-05-17T02:36:17;101505.94;;;12.90;74.21
11985;BME280;6052;53.246;10.368;2023-05-17T02:38:47;101506.03;;;12.84;74.14
11985;BME280;6052;53.246;10.368;2023-05-17T02:41:16;101511.06;;;12.80;74.57
11985;BME280;6052;53.246;10.368;2023-05-17T02:43:49;101509.72;;;13.01;73.59
11985;BME280;6052;53.246;10.368;2023-05-17T02:46:18;101515.91;;;13.01;73.03
11985;BME280;6052;53.246;10.368;2023-05-17T02:48:48;101517.06;;;12.94;73.22
11985;BME280;6052;53.246;10.368;2023-05-17T02:51:17;101517.75;;;12.89;72.68
11985;BME280;6052;53.246;10.368;2023-05-17T02:53:46;101520.22;;;12.91;73.08
11985;BME280;6052;53.246;10.368;2023-05-17T02:56:16;101521.63;;;12.82;73.71
11985;BME280;6052;53.246;10.368;2023-05-17T02:58:48;101525.63;;;12.91;72.86
11985;BME280;6052;53.246;10.368;2023-05-17T03:01:18;101528.59;;;13.01;72.55
11985;BME280;6052;53.246;10.368;2023-05-17T03:03:47;101529.94;;;12.92;72.49
11985;BME280;6052;53.246;10.368;2023-05-17T03:06:17;101536.38;;;12.79;73.26
11985;BME280;6052;53.246;10.368;2023-05-17T03:08:47;101531.47;;;12.88;72.56
11985;BME280;6052;53.246;10.368;2023-05-17T03:11:16;101534.72;;;12.90;72.33
11985;BME280;6052;53.246;10.368;2023-05-17T03:13:48;101537.91;;;12.87;71.83
11985;BME280;6052;53.246;10.368;2023-05-17T03:16:18;101543.28;;;12.87;72.29
11985;BME280;6052;53.246;10.368;2023-05-17T03:18:47;101548.19;;;12.78;73.07
11985;BME280;6052;53.246;10.368;2023-05-17T03:21:17;101548.34;;;12.83;72.46
11985;BME280;6052;53.246;10.368;2023-05-17T03:23:47;101551.00;;;12.72;72.55
11985;BME280;6052;53.246;10.368;2023-05-17T03:26:16;101559.28;;;13.00;71.88
11985;BME280;6052;53.246;10.368;2023-05-17T03:28:49;101570.38;;;12.92;72.04
11985;BME280;6052;53.246;10.368;2023-05-17T03:31:19;101569.94;;;12.65;72.68
11985;BME280;6052;53.246;10.368;2023-05-17T03:33:48;101570.09;;;12.52;74.00
11985;BME280;6052;53.246;10.368;2023-05-17T03:36:18;101583.41;;;12.65;73.09
11985;BME280;6052;53.246;10.368;2023-05-17T03:38:48;101584.13;;;12.72;72.01
11985;BME280;6052;53.246;10.368;2023-05-17T03:41:17;101589.56;;;12.84;72.05
11985;BME280;6052;53.246;10.368;2023-05-17T03:43:49;101589.97;;;12.99;70.99
11985;BME280;6052;53.246;10.368;2023-05-17T03:46:19;101593.28;;;13.01;70.79
11985;BME280;6052;53.246;10.368;2023-05-17T03:48:48;101588.00;;;12.76;71.78
11985;BME280;6052;53.246;10.368;2023-05-17T03:51:18;101598.00;;;12.58;72.23
11985;BME280;6052;53.246;10.368;2023-05-17T03:53:55;101593.66;;;12.86;70.96
11985;BME280;6052;53.246;10.368;2023-05-17T03:56:25;101603.84;;;12.84;71.00
11985;BME280;6052;53.246;10.368;2023-05-17T03:58:57;101615.88;;;13.00;70.62
11985;BME280;6052;53.246;10.368;2023-05-17T04:01:27;101607.09;;;12.75;70.96
11985;BME280;6052;53.246;10.368;2023-05-17T04:03:56;101610.44;;;12.88;70.28
11985;BME280;6052;53.246;10.368;2023-05-17T04:06:27;101611.09;;;12.84;70.21
11985;BME280;6052;53.246;10.368;2023-05-17T04:08:56;101618.75;;;12.87;70.32
11985;BME280;6052;53.246;10.368;2023-05-17T04:11:28;101618.16;;;12.37;71.38
11985;BME280;6052;53.246;10.368;2023-05-17T04:14:01;101619.19;;;12.54;71.13
11985;BME280;6052;53.246;10.368;2023-05-17T04:16:30;101621.19;;;12.59;70.50
11985;BME280;6052;53.246;10.368;2023-05-17T04:19:00;101615.69;;;12.83;70.04
11985;BME280;6052;53.246;10.368;2023-05-17T04:21:29;101619.75;;;12.74;69.62
11985;BME280;6052;53.246;10.368;2023-05-17T04:23:59;101625.63;;;12.83;69.50
11985;BME280;6052;53.246;10.368;2023-05-17T04:26:28;101630.72;;;12.43;70.34
11985;BME280;6052;53.246;10.368;2023-05-17T04:29:01;101630.53;;;12.74;69.89
11985;BME280;6052;53.246;10.368;2023-05-17T04:31:31;101639.38;;;12.63;69.97
11985;BME280;6052;53.246;10.368;2023-05-17T04:34:00;101636.63;;;12.52;70.67
11985;BME280;6052;53.246;10.368;2023-05-17T04:36:30;101642.53;;;12.60;69.90
11985;BME280;6052;53.246;10.368;2023-05-17T04:38:59;101641.59;;;12.37;70.11
11985;BME280;6052;53.246;10.368;2023-05-17T04:41:29;101644.53;;;12.65;69.79
11985;BME280;6052;53.246;10.368;2023-05-17T04:44:01;101657.84;;;12.60;70.22
11985;BME280;6052;53.246;10.368;2023-05-17T04:46:30;101661.75;;;12.64;70.34
11985;BME280;6052;53.246;10.368;2023-05-17T04:49:00;101664.00;;;12.67;70.60
11985;BME280;6052;53.246;10.368;2023-05-17T04:51:30;101669.38;;;12.67;70.24
11985;BME280;6052;53.246;10.368;2023-05-17T04:54:00;101671.78;;;12.57;70.61
11985;BME280;6052;53.246;10.368;2023-05-17T04:56:33;101677.69;;;12.65;69.93
11985;BME280;6052;53.246;10.368;2023-05-17T04:59:05;101676.47;;;12.61;70.29
11985;BME280;6052;53.246;10.368;2023-05-17T05:01:35;101680.00;;;12.26;71.60
11985;BME280;6052;53.246;10.368;2023-05-17T05:04:04;101696.31;;;12.31;71.89
11985;BME280;6052;53.246;10.368;2023-05-17T05:06:34;101694.69;;;12.48;70.96
11985;BME280;6052;53.246;10.368;2023-05-17T05:09:05;101702.28;;;12.51;70.88
11985;BME280;6052;53.246;10.368;2023-05-17T05:11:35;101703.25;;;12.38;71.15
11985;BME280;6052;53.246;10.368;2023-05-17T05:14:07;101705.72;;;12.04;72.26
11985;BME280;6052;53.246;10.368;2023-05-17T05:16:36;101716.16;;;12.36;71.09
11985;BME280;6052;53.246;10.368;2023-05-17T05:19:06;101714.66;;;12.40;70.38
11985;BME280;6052;53.246;10.368;2023-05-17T05:21:36;101721.44;;;12.25;71.59
11985;BME280;6052;53.246;10.368;2023-05-17T05:24:06;101721.75;;;12.35;70.98
11985;BME280;6052;53.246;10.368;2023-05-17T05:26:36;101724.88;;;12.50;70.55
11985;BME280;6052;53.246;10.368;2023-05-17T05:29:08;101729.56;;;12.18;70.87
11985;BME280;6052;53.246;10.368;2023-05-17T05:31:38;101737.50;;;12.13;71.59
11985;BME280;6052;53.246;10.368;2023-05-17T05:34:07;101736.41;;;12.39;70.07
11985;BME280;6052;53.246;10.368;2023-05-17T05:36:37;101734.63;;;11.90;70.37
11985;BME280;6052;53.246;10.368;2023-05-17T05:39:06;101739.63;;;12.29;69.95
11985;BME280;6052;53.246;10.368;2023-05-17T05:41:36;101734.53;;;12.21;69.65
11985;BME280;6052;53.246;10.368;2023-05-17T05:44:05;101730.13;;;12.27;69.06
11985;BME280;6052;53.246;10.368;2023-05-17T05:46:37;101751.16;;;12.12;68.74
11985;BME280;6052;53.246;10.368;2023-05-17T05:49:06;101753.47;;;12.08;69.11
11985;BME280;6052;53.246;10.368;2023-05-17T05:51:36;101765.34;;;12.01;69.16
11985;BME280;6052;53.246;10.368;2023-05-17T05:54:05;101758.75;;;12.21;68.07
11985;BME280;6052;53.246;10.368;2023-05-17T05:56:35;101760.22;;;12.17;67.09
11985;BME280;6052;53.246;10.368;2023-05-17T05:59:05;101759.06;;;12.07;66.17
11985;BME280;6052;53.246;10.368;2023-05-17T06:01:37;101777.81;;;11.95;66.20
11985;BME280;6052;53.246;10.368;2023-05-17T06:04:06;101769.00;;;11.82;65.31
11985;BME280;6052;53.246;10.368;2023-05-17T06:06:36;101783.44;;;11.94;65.05
11985;BME280;6052;53.246;10.368;2023-05-17T06:09:06;101779.63;;;12.01;65.25
11985;BME280;6052;53.246;10.368;2023-05-17T06:11:37;101777.03;;;11.88;64.96
11985;BME280;6052;53.246;10.368;2023-05-17T06:14:07;101780.34;;;11.90;64.17
11985;BME280;6052;53.246;10.368;2023-05-17T06:16:39;101795.72;;;12.08;65.09
11985;BME280;6052;53.246;10.368;2023-05-17T06:19:09;101792.22;;;12.07;65.41
11985;BME280;6052;53.246;10.368;2023-05-17T06:21:38;101800.28;;;12.07;65.01
11985;BME280;6052;53.246;10.368;2023-05-17T06:24:08;101798.84;;;12.05;65.56
11985;BME280;6052;53.246;10.368;2023-05-17T06:26:37;101804.13;;;12.18;65.65
11985;BME280;6052;53.246;10.368;2023-05-17T06:29:06;101801.75;;;12.03;65.64
11985;BME280;6052;53.246;10.368;2023-05-17T06:31:38;101802.53;;;12.10;65.50
11985;BME280;6052;53.246;10.368;2023-05-17T06:34:08;101800.59;;;12.17;64.63
11985;BME280;6052;53.246;10.368;2023-05-17T06:36:37;101797.53;;;12.14;64.70
11985;BME280;6052;53.246;10.368;2023-05-17T06:39:07;101802.09;;;12.38;64.15
11985;BME280;6052;53.246;10.368;2023-05-17T06:41:36;101808.69;;;12.17;64.11
11985;BME280;6052;53.246;10.368;2023-05-17T06:44:06;101824.19;;;12.22;64.23
11985;BME280;6052;53.246;10.368;2023-05-17T06:46:35;101820.38;;;12.05;64.12
11985;BME280;6052;53.246;10.368;2023-05-17T06:49:07;101830.47;;;12.09;63.61
11985;BME280;6052;53.246;10.368;2023-05-17T06:51:37;101835.06;;;12.09;63.54
11985;BME280;6052;53.246;10.368;2023-05-17T06:54:06;101827.84;;;12.27;63.72
11985;BME280;6052;53.246;10.368;2023-05-17T06:56:36;101835.97;;;12.21;63.68
11985;BME280;6052;53.246;10.368;2023-05-17T06:59:05;101839.75;;;12.13;63.29
11985;BME280;6052;53.246;10.368;2023-05-17T07:01:35;101846.31;;;12.24;63.39
11985;BME280;6052;53.246;10.368;2023-05-17T07:04:07;101850.91;;;12.17;62.54
11985;BME280;6052;53.246;10.368;2023-05-17T07:06:37;101862.22;;;12.01;61.79
11985;BME280;6052;53.246;10.368;2023-05-17T07:09:06;101850.03;;;11.98;62.38
11985;BME280;6052;53.246;10.368;2023-05-17T07:11:36;101853.16;;;11.95;62.58
11985;BME280;6052;53.246;10.368;2023-05-17T07:14:05;101861.16;;;12.02;62.83
11985;BME280;6052;53.246;10.368;2023-05-17T07:16:35;101860.69;;;12.11;62.95
11985;BME280;6052;53.246;10.368;2023-05-17T07:19:07;101866.56;;;12.02;63.29
11985;BME280;6052;53.246;10.368;2023-05-17T07:21:36;101879.84;;;12.28;63.77
11985;BME280;6052;53.246;10.368;2023-05-17T07:24:07;101875.09;;;12.23;63.29
11985;BME280;6052;53.246;10.368;2023-05-17T07:26:37;101872.72;;;12.09;64.64
11985;BME280;6052;53.246;10.368;2023-05-17T07:29:06;101874.47;;;12.28;64.29
11985;BME280;6052;53.246;10.368;2023-05-17T07:31:36;101874.38;;;12.59;64.06
11985;BME280;6052;53.246;10.368;2023-05-17T07:34:08;101877.47;;;12.38;64.00
11985;BME280;6052;53.246;10.368;2023-05-17T07:36:37;101875.44;;;12.58;64.52
11985;BME280;6052;53.246;10.368;2023-05-17T07:39:07;101873.00;;;12.50;64.11
11985;BME280;6052;53.246;10.368;2023-05-17T07:41:37;101880.22;;;12.31;64.92
11985;BME280;6052;53.246;10.368;2023-05-17T07:44:07;101897.53;;;12.42;64.07
11985;BME280;6052;53.246;10.368;2023-05-17T07:46:36;101897.81;;;12.34;64.70
11985;BME280;6052;53.246;10.368;2023-05-17T07:49:08;101902.97;;;12.60;64.64
11985;BME280;6052;53.246;10.368;2023-05-17T07:51:38;101897.88;;;12.52;64.55
11985;BME280;6052;53.246;10.368;2023-05-17T07:54:08;101908.66;;;12.52;64.80
11985;BME280;6052;53.246;10.368;2023-05-17T07:56:37;101908.03;;;12.50;64.06
11985;BME280;6052;53.246;10.368;2023-05-17T07:59:07;101913.78;;;12.78;63.22
11985;BME280;6052;53.246;10.368;2023-05-17T08:01:36;101917.00;;;12.44;62.95
11985;BME280;6052;53.246;10.368;2023-05-17T08:04:05;101912.44;;;12.44;62.09
11985;BME280;6052;53.246;10.368;2023-05-17T08:06:37;101923.03;;;12.64;61.71
11985;BME280;6052;53.246;10.368;2023-05-17T08:09:07;101922.94;;;12.77;62.38
11985;BME280;6052;53.246;10.368;2023-05-17T08:11:37;101928.91;;;12.79;61.08
11985;BME280;6052;53.246;10.368;2023-05-17T08:14:12;101924.63;;;12.96;60.20
11985;BME280;6052;53.246;10.368;2023-05-17T08:16:45;101919.44;;;12.94;59.75
11985;BME280;6052;53.246;10.368;2023-05-17T08:19:14;101924.91;;;12.88;58.78
11985;BME280;6052;53.246;10.368;2023-05-17T08:21:46;101925.06;;;12.93;58.10
11985;BME280;6052;53.246;10.368;2023-05-17T08:24:16;101933.28;;;13.22;58.50
11985;BME280;6052;53.246;10.368;2023-05-17T08:26:45;101942.94;;;13.12;58.47
11985;BME280;6052;53.246;10.368;2023-05-17T08:29:15;101936.44;;;13.19;58.21
11985;BME280;6052;53.246;10.368;2023-05-17T08:31:44;101941.06;;;13.30;58.09
11985;BME280;6052;53.246;10.368;2023-05-17T08:34:14;101941.66;;;13.50;58.23
11985;BME280;6052;53.246;10.368;2023-05-17T08:36:45;101953.22;;;13.57;57.77
11985;BME280;6052;53.246;10.368;2023-05-17T08:39:15;101948.19;;;13.43;57.98
11985;BME280;6052;53.246;10.368;2023-05-17T08:41:46;101938.91;;;13.57;57.69
11985;BME280;6052;53.246;10.368;2023-05-17T08:44:15;101943.81;;;13.78;57.63
11985;BME280;6052;53.246;10.368;2023-05-17T08:46:46;101942.78;;;13.79;57.70
11985;BME280;6052;53.246;10.368;2023-05-17T08:49:21;101940.31;;;13.59;57.60
11985;BME280;6052;53.246;10.368;2023-05-17T08:51:57;101946.06;;;13.63;57.79
11985;BME280;6052;53.246;10.368;2023-05-17T08:54:27;101942.66;;;13.56;57.13
11985;BME280;6052;53.246;10.368;2023-05-17T08:56:59;101945.72;;;13.59;57.88
11985;BME280;6052;53.246;10.368;2023-05-17T08:59:30;101949.31;;;13.53;57.85
11985;BME280;6052;53.246;10.368;2023-05-17T09:02:03;101948.91;;;13.68;57.85
11985;BME280;6052;53.246;10.368;2023-05-17T09:04:34;101951.69;;;13.79;57.84
11985;BME280;6052;53.246;10.368;2023-05-17T09:07:06;101966.25;;;13.60;58.14
11985;BME280;6052;53.246;10.368;2023-05-17T09:09:35;101964.22;;;13.74;58.02
11985;BME280;6052;53.246;10.368;2023-05-17T09:12:05;101960.84;;;13.78;58.52
11985;BME280;6052;53.246;10.368;2023-05-17T09:14:35;101972.91;;;13.76;58.65
11985;BME280;6052;53.246;10.368;2023-05-17T09:17:04;101961.81;;;13.66;58.77
11985;BME280;6052;53.246;10.368;2023-05-17T09:19:41;101971.41;;;13.62;58.57
11985;BME280;6052;53.246;10.368;2023-05-17T09:22:17;101987.91;;;13.72;58.71
11985;BME280;6052;53.246;10.368;2023-05-17T09:24:48;101981.56;;;13.66;58.84
11985;BME280;6052;53.246;10.368;2023-05-17T09:27:18;101981.78;;;13.65;59.27
11985;BME280;6052;53.246;10.368;2023-05-17T09:29:47;101975.16;;;13.79;59.18
11985;BME280;6052;53.246;10.368;2023-05-17T09:32:17;101980.25;;;13.87;59.82
11985;BME280;6052;53.246;10.368;2023-05-17T09:34:47;101987.09;;;13.71;59.34
11985;BME280;6052;53.246;10.368;2023-05-17T09:37:19;101970.50;;;13.68;59.61
11985;BME280;6052;53.246;10.368;2023-05-17T09:39:49;101985.91;;;13.97;59.15
11985;BME280;6052;53.246;10.368;2023-05-17T09:42:18;101981.16;;;13.81;59.83
11985;BME280;6052;53.246;10.368;2023-05-17T09:44:54;101972.75;;;13.89;59.87
11985;BME280;6052;53.246;10.368;2023-05-17T09:47:29;101963.91;;;13.82;59.17
11985;BME280;6052;53.246;10.368;2023-05-17T09:50:00;101969.16;;;13.95;59.44
11985;BME280;6052;53.246;10.368;2023-05-17T09:52:34;101971.53;;;14.03;59.63
11985;BME280;6052;53.246;10.368;2023-05-17T09:55:06;101970.13;;;14.00;59.22
11985;BME280;6052;53.246;10.368;2023-05-17T09:57:37;101963.78;;;14.06;58.86
11985;BME280;6052;53.246;10.368;2023-05-17T10:00:08;101957.91;;;13.98;58.06
11985;BME280;6052;53.246;10.368;2023-05-17T10:02:39;101969.91;;;14.13;59.06
11985;BME280;6052;53.246;10.368;2023-05-17T10:05:11;101965.44;;;14.07;58.49
11985;BME280;6052;53.246;10.368;2023-05-17T10:07:45;101966.38;;;14.31;58.91
11985;BME280;6052;53.246;10.368;2023-05-17T10:10:15;101975.09;;;14.33;59.37
11985;BME280;6052;53.246;10.368;2023-05-17T10:12:46;101971.47;;;14.39;59.28
11985;BME280;6052;53.246;10.368;2023-05-17T10:15:18;101965.28;;;14.20;59.01
11985;BME280;6052;53.246;10.368;2023-05-17T10:17:49;101977.28;;;14.24;59.16
11985;BME280;6052;53.246;10.368;2023-05-17T10:20:20;101959.00;;;14.38;59.23
11985;BME280;6052;53.246;10.368;2023-05-17T10:22:53;101970.97;;;14.30;59.19
11985;BME280;6052;53.246;10.368;2023-05-17T10:25:24;101973.34;;;14.50;58.82
11985;BME280;6052;53.246;10.368;2023-05-17T10:27:54;101976.53;;;14.47;58.74
11985;BME280;6052;53.246;10.368;2023-05-17T10:30:25;101988.50;;;14.39;58.58
11985;BME280;6052;53.246;10.368;2023-05-17T10:32:55;101990.94;;;14.29;59.26
11985;BME280;6052;53.246;10.368;2023-05-17T10:35:26;101984.34;;;14.25;59.43
11985;BME280;6052;53.246;10.368;2023-05-17T10:37:59;101988.72;;;14.38;59.62
11985;BME280;6052;53.246;10.368;2023-05-17T10:40:29;101988.78;;;14.49;59.25
11985;BME280;6052;53.246;10.368;2023-05-17T10:43:00;101990.50;;;14.44;59.19
11985;BME280;6052;53.246;10.368;2023-05-17T10:45:30;102000.25;;;14.45;58.98
11985;BME280;6052;53.246;10.368;2023-05-17T10:48:01;101994.72;;;14.40;58.83
11985;BME280;6052;53.246;10.368;2023-05-17T10:50:37;101994.44;;;14.59;59.21
11985;BME280;6052;53.246;10.368;2023-05-17T10:53:28;101991.09;;;14.46;58.74
11985;BME280;6052;53.246;10.368;2023-05-17T10:55:58;101986.09;;;14.61;58.36
11985;BME280;6052;53.246;10.368;2023-05-17T10:58:27;101984.78;;;14.52;58.50
11985;BME280;6052;53.246;10.368;2023-05-17T11:00:57;101975.84;;;14.51;58.21
11985;BME280;6052;53.246;10.368;2023-05-17T11:03:27;101981.28;;;14.22;59.01
11985;BME280;6052;53.246;10.368;2023-05-17T11:06:13;101997.69;;;14.50;59.88
11985;BME280;6052;53.246;10.368;2023-05-17T11:09:13;101989.53;;;14.27;59.42
11985;BME280;6052;53.246;10.368;2023-05-17T11:12:02;101992.28;;;14.50;59.78
11985;BME280;6052;53.246;10.368;2023-05-17T11:14:50;101997.44;;;14.51;58.12
11985;BME280;6052;53.246;10.368;2023-05-17T11:17:25;101993.34;;;14.49;57.26
11985;BME280;6052;53.246;10.368;2023-05-17T11:19:59;101982.31;;;14.50;56.46
11985;BME280;6052;53.246;10.368;2023-05-17T11:22:36;101970.44;;;14.51;56.58
11985;BME280;6052;53.246;10.368;2023-05-17T11:25:10;101979.31;;;14.81;57.00
11985;BME280;6052;53.246;10.368;2023-05-17T11:27:44;101987.38;;;14.70;56.69
11985;BME280;6052;53.246;10.368;2023-05-17T11:30:16;101973.19;;;14.74;56.96
11985;BME280;6052;53.246;10.368;2023-05-17T11:32:49;101978.50;;;14.81;57.10
11985;BME280;6052;53.246;10.368;2023-05-17T11:35:22;101971.78;;;14.72;56.90
11985;BME280;6052;53.246;10.368;2023-05-17T11:37:53;101980.81;;;14.66;56.49
11985;BME280;6052;53.246;10.368;2023-05-17T11:40:43;101985.06;;;14.85;56.25
11985;BME280;6052;53.246;10.368;2023-05-17T11:43:14;101987.06;;;14.78;56.29
11985;BME280;6052;53.246;10.368;2023-05-17T11:45:46;101979.31;;;14.93;56.41
11985;BME280;6052;53.246;10.368;2023-05-17T11:48:20;101973.44;;;14.96;55.58
11985;BME280;6052;53.246;10.368;2023-05-17T11:50:52;101969.22;;;15.00;55.40
11985;BME280;6052;53.246;10.368;2023-05-17T11:53:23;101981.53;;;14.84;55.21
11985;BME280;6052;53.246;10.368;2023-05-17T11:55:56;101974.59;;;14.77;55.46
11985;BME280;6052;53.246;10.368;2023-05-17T11:58:30;101979.41;;;14.75;55.20
11985;BME280;6052;53.246;10.368;2023-05-17T12:01:00;101971.41;;;14.80;55.82
11985;BME280;6052;53.246;10.368;2023-05-17T12:03:31;101980.69;;;14.72;55.49
11985;BME280;6052;53.246;10.368;2023-05-17T12:06:03;101978.25;;;14.71;55.40
11985;BME280;6052;53.246;10.368;2023-05-17T12:08:36;101988.91;;;14.77;55.63
11985;BME280;6052;53.246;10.368;2023-05-17T12:11:10;101981.97;;;14.70;55.66
11985;BME280;6052;53.246;10.368;2023-05-17T12:13:40;101980.97;;;14.94;56.16
11985;BME280;6052;53.246;10.368;2023-05-17T12:16:13;101982.22;;;14.80;56.75
11985;BME280;6052;53.246;10.368;2023-05-17T12:18:46;101980.38;;;14.92;56.19
11985;BME280;6052;53.246;10.368;2023-05-17T12:21:17;101987.06;;;14.89;55.89
11985;BME280;6052;53.246;10.368;2023-05-17T12:23:50;101981.56;;;14.96;55.92
11985;BME280;6052;53.246;10.368;2023-05-17T12:26:23;101992.16;;;14.97;56.43
11985;BME280;6052;53.246;10.368;2023-05-17T12:28:54;101992.38;;;14.96;56.29
11985;BME280;6052;53.246;10.368;2023-05-17T12:31:26;101995.78;;;15.03;56.28
11985;BME280;6052;53.246;10.368;2023-05-17T12:33:57;102004.00;;;14.96;56.35
11985;BME280;6052;53.246;10.368;2023-05-17T12:36:28;101996.00;;;15.01;55.33
11985;BME280;6052;53.246;10.368;2023-05-17T12:39:00;102006.38;;;15.16;55.70
11985;BME280;6052;53.246;10.368;2023-05-17T12:41:34;101996.38;;;15.05;55.81
11985;BME280;6052;53.246;10.368;2023-05-17T12:44:06;102001.44;;;15.13;55.40
11985;BME280;6052;53.246;10.368;2023-05-17T12:46:41;102005.78;;;15.25;55.34
11985;BME280;6052;53.246;10.368;2023-05-17T12:49:13;102003.72;;;15.39;55.75
11985;BME280;6052;53.246;10.368;2023-05-17T12:51:43;101996.63;;;15.15;56.38
11985;BME280;6052;53.246;10.368;2023-05-17T12:54:24;102008.72;;;14.89;56.74
11985;BME280;6052;53.246;10.368;2023-05-17T12:56:56;102018.00;;;15.16;57.60
11985;BME280;6052;53.246;10.368;2023-05-17T12:59:25;102014.72;;;15.14;57.59
11985;BME280;6052;53.246;10.368;2023-05-17T13:01:56;102016.03;;;15.12;56.00
11985;BME280;6052;53.246;10.368;2023-05-17T13:04:32;102008.59;;;15.19;55.93
11985;BME280;6052;53.246;10.368;2023-05-17T13:07:04;102015.22;;;15.34;56.34
11985;BME280;6052;53.246;10.368;2023-05-17T13:09:44;102023.91;;;15.25;56.70
11985;BME280;6052;53.246;10.368;2023-05-17T13:12:22;102013.09;;;15.13;55.66